sensor_id;sensor_type;location;lat;lon;timestamp;pressure;altitude;pressure_sealevel;temperature;humidity
23321;BME280;33376;51.306;4.752;2024-01-27T00:00:03;103580.13;;;7.00;nan
23321;BME280;33376;51.306;4.752;2024-01-27T00:02:29;103544.09;;;7.21;nan
23321;BME280;33376;51.306;4.752;2024-01-27T00:04:54;103495.78;;;7.54;nan
23321;BME280;33376;51.306;4.752;2024-01-27T00:07:19;103531.81;;;7.23;nan
23321;BME280;33376;51.306;4.752;2024-01-27T00:09:45;103523.88;;;7.10;nan
23321;BME280;33376;51.306;4.752;2024-01-27T00:12:10;103512.44;;;7.00;nan
23321;BME280;33376;51.306;4.752;2024-01-27T00:14:37;103583.31;;;6.37;nan
23321;BME280;33376;51.306;4.752;2024-01-27T00:17:03;103573.91;;;6.86;nan
23321;BME280;33376;51.306;4.752;2024-01-27T00:19:28;103588.69;;;6.55;nan
23321;BME280;33376;51.306;4.752;2024-01-27T00:21:53;103595.53;;;6.25;nan
23321;BME280;33376;51.306;4.752;2024-01-27T00:24:19;103583.47;;;6.66;nan
23321;BME280;33376;51.306;4.752;2024-01-27T00:26:44;103549.31;;;6.96;nan
23321;BME280;33376;51.306;4.752;2024-01-27T00:29:09;103576.31;;;6.41;nan
23321;BME280;33376;51.306;4.752;2024-01-27T00:31:35;103541.47;;;7.26;nan
23321;BME280;33376;51.306;4.752;2024-01-27T00:34:00;103571.16;;;6.57;nan
23321;BME280;33376;51.306;4.752;2024-01-27T00:36:26;103590.44;;;6.55;nan
23321;BME280;33376;51.306;4.752;2024-01-27T00:38:51;103589.59;;;6.59;nan
23321;BME280;33376;51.306;4.752;2024-01-27T00:41:17;103588.59;;;6.42;nan
23321;BME280;33376;51.306;4.752;2024-01-27T00:43:43;103584.34;;;6.59;nan
23321;BME280;33376;51.306;4.752;2024-01-27T00:46:08;103605.00;;;6.02;nan
23321;BME280;33376;51.306;4.752;2024-01-27T00:48:33;103591.25;;;6.45;nan
23321;BME280;33376;51.306;4.752;2024-01-27T00:50:58;103622.63;;;6.12;nan
23321;BME280;33376;51.306;4.752;2024-01-27T00:53:24;103607.13;;;6.49;nan
23321;BME280;33376;51.306;4.752;2024-01-27T00:55:49;103630.34;;;5.90;nan
23321;BME280;33376;51.306;4.752;2024-01-27T00:58:15;103626.38;;;6.42;nan
23321;BME280;33376;51.306;4.752;2024-01-27T01:00:41;103644.38;;;5.86;nan
23321;BME280;33376;51.306;4.752;2024-01-27T01:03:06;103648.78;;;5.89;nan
23321;BME280;33376;51.306;4.752;2024-01-27T01:05:32;103670.81;;;5.98;nan
23321;BME280;33376;51.306;4.752;2024-01-27T01:07:57;103674.44;;;6.11;nan
23321;BME280;33376;51.306;4.752;2024-01-27T01:10:22;103640.16;;;6.10;nan
23321;BME280;33376;51.306;4.752;2024-01-27T01:12:48;103604.44;;;6.45;nan
23321;BME280;33376;51.306;4.752;2024-01-27T01:15:13;103613.22;;;6.42;nan
23321;BME280;33376;51.306;4.752;2024-01-27T01:17:39;103600.94;;;6.43;nan
23321;BME280;33376;51.306;4.752;2024-01-27T01:20:04;103585.09;;;6.41;nan
23321;BME280;33376;51.306;4.752;2024-01-27T01:22:30;103587.00;;;6.68;nan
23321;BME280;33376;51.306;4.752;2024-01-27T01:24:56;103547.56;;;7.01;nan
23321;BME280;33376;51.306;4.752;2024-01-27T01:27:21;103535.22;;;6.85;nan
23321;BME280;33376;51.306;4.752;2024-01-27T01:29:46;103571.16;;;6.60;nan
23321;BME280;33376;51.306;4.752;2024-01-27T01:32:12;103547.47;;;6.74;nan
23321;BME280;33376;51.306;4.752;2024-01-27T01:34:37;103596.56;;;6.48;nan
23321;BME280;33376;51.306;4.752;2024-01-27T01:37:02;103582.47;;;6.44;nan
23321;BME280;33376;51.306;4.752;2024-01-27T01:39:28;103569.56;;;6.94;nan
23321;BME280;33376;51.306;4.752;2024-01-27T01:41:54;103544.00;;;6.78;nan
23321;BME280;33376;51.306;4.752;2024-01-27T01:44:19;103547.47;;;6.71;nan
23321;BME280;33376;51.306;4.752;2024-01-27T01:46:44;103611.69;;;5.68;nan
23321;BME280;33376;51.306;4.752;2024-01-27T01:49:10;103635.94;;;6.24;nan
23321;BME280;33376;51.306;4.752;2024-01-27T01:51:35;103617.31;;;6.04;nan
23321;BME280;33376;51.306;4.752;2024-01-27T01:54:00;103633.41;;;6.42;nan
23321;BME280;33376;51.306;4.752;2024-01-27T01:56:26;103620.22;;;6.39;nan
23321;BME280;33376;51.306;4.752;2024-01-27T01:58:52;103649.09;;;6.24;nan
23321;BME280;33376;51.306;4.752;2024-01-27T02:01:18;103680.16;;;5.69;nan
23321;BME280;33376;51.306;4.752;2024-01-27T02:03:51;103676.16;;;6.05;nan
23321;BME280;33376;51.306;4.752;2024-01-27T02:06:17;103659.91;;;5.64;nan
23321;BME280;33376;51.306;4.752;2024-01-27T02:08:42;103662.91;;;5.98;nan
23321;BME280;33376;51.306;4.752;2024-01-27T02:11:07;103634.91;;;6.10;nan
23321;BME280;33376;51.306;4.752;2024-01-27T02:13:32;103657.16;;;5.53;nan
23321;BME280;33376;51.306;4.752;2024-01-27T02:15:58;103661.47;;;5.45;nan
23321;BME280;33376;51.306;4.752;2024-01-27T02:18:23;103634.88;;;6.04;nan
23321;BME280;33376;51.306;4.752;2024-01-27T02:20:49;103641.84;;;5.98;nan
23321;BME280;33376;51.306;4.752;2024-01-27T02:23:14;103625.09;;;5.92;nan
23321;BME280;33376;51.306;4.752;2024-01-27T02:25:39;103617.81;;;5.65;nan
23321;BME280;33376;51.306;4.752;2024-01-27T02:28:04;103624.41;;;6.13;nan
23321;BME280;33376;51.306;4.752;2024-01-27T02:30:30;103631.00;;;5.68;nan
23321;BME280;33376;51.306;4.752;2024-01-27T02:32:55;103646.09;;;5.83;nan
23321;BME280;33376;51.306;4.752;2024-01-27T02:35:21;103621.06;;;6.33;nan
23321;BME280;33376;51.306;4.752;2024-01-27T02:37:46;103627.53;;;5.71;nan
23321;BME280;33376;51.306;4.752;2024-01-27T02:40:12;103634.88;;;6.07;nan
23321;BME280;33376;51.306;4.752;2024-01-27T02:42:37;103631.16;;;5.82;nan
23321;BME280;33376;51.306;4.752;2024-01-27T02:45:03;103670.34;;;5.56;nan
23321;BME280;33376;51.306;4.752;2024-01-27T02:47:28;103647.72;;;5.75;nan
23321;BME280;33376;51.306;4.752;2024-01-27T02:49:53;103664.28;;;5.63;nan
23321;BME280;33376;51.306;4.752;2024-01-27T02:52:19;103651.19;;;5.69;nan
23321;BME280;33376;51.306;4.752;2024-01-27T02:54:44;103679.22;;;5.63;nan
23321;BME280;33376;51.306;4.752;2024-01-27T02:57:09;103640.91;;;5.92;nan
23321;BME280;33376;51.306;4.752;2024-01-27T02:59:35;103643.53;;;5.92;nan
23321;BME280;33376;51.306;4.752;2024-01-27T03:02:00;103658.91;;;5.51;nan
23321;BME280;33376;51.306;4.752;2024-01-27T03:04:25;103673.81;;;5.54;nan
23321;BME280;33376;51.306;4.752;2024-01-27T03:06:51;103668.66;;;5.61;nan
23321;BME280;33376;51.306;4.752;2024-01-27T03:09:16;103671.72;;;6.01;nan
23321;BME280;33376;51.306;4.752;2024-01-27T03:11:41;103645.38;;;5.99;nan
23321;BME280;33376;51.306;4.752;2024-01-27T03:14:06;103635.69;;;5.95;nan
23321;BME280;33376;51.306;4.752;2024-01-27T03:16:32;103637.16;;;5.69;nan
23321;BME280;33376;51.306;4.752;2024-01-27T03:18:57;103675.63;;;5.56;nan
23321;BME280;33376;51.306;4.752;2024-01-27T03:21:22;103669.00;;;5.93;nan
23321;BME280;33376;51.306;4.752;2024-01-27T03:23:48;103675.75;;;5.70;nan
23321;BME280;33376;51.306;4.752;2024-01-27T03:26:13;103678.03;;;5.40;nan
23321;BME280;33376;51.306;4.752;2024-01-27T03:28:38;103660.81;;;5.67;nan
23321;BME280;33376;51.306;4.752;2024-01-27T03:31:03;103656.50;;;5.74;nan
23321;BME280;33376;51.306;4.752;2024-01-27T03:33:29;103678.91;;;5.37;nan
23321;BME280;33376;51.306;4.752;2024-01-27T03:35:55;103700.66;;;5.23;nan
23321;BME280;33376;51.306;4.752;2024-01-27T03:38:20;103689.22;;;5.21;nan
23321;BME280;33376;51.306;4.752;2024-01-27T03:40:46;103688.50;;;5.32;nan
23321;BME280;33376;51.306;4.752;2024-01-27T03:43:11;103678.03;;;5.38;nan
23321;BME280;33376;51.306;4.752;2024-01-27T03:45:36;103646.31;;;6.06;nan
23321;BME280;33376;51.306;4.752;2024-01-27T03:48:01;103649.31;;;5.56;nan
23321;BME280;33376;51.306;4.752;2024-01-27T03:50:27;103632.03;;;5.82;nan
23321;BME280;33376;51.306;4.752;2024-01-27T03:52:52;103599.59;;;5.83;nan
23321;BME280;33376;51.306;4.752;2024-01-27T03:55:17;103611.13;;;5.99;nan
23321;BME280;33376;51.306;4.752;2024-01-27T03:57:42;103618.97;;;5.90;nan
23321;BME280;33376;51.306;4.752;2024-01-27T04:00:08;103643.47;;;5.83;nan
23321;BME280;33376;51.306;4.752;2024-01-27T04:02:33;103685.63;;;5.16;nan
23321;BME280;33376;51.306;4.752;2024-01-27T04:04:59;103676.56;;;5.63;nan
23321;BME280;33376;51.306;4.752;2024-01-27T04:07:24;103641.53;;;5.71;nan
23321;BME280;33376;51.306;4.752;2024-01-27T04:09:49;103663.38;;;5.60;nan
23321;BME280;33376;51.306;4.752;2024-01-27T04:12:14;103665.50;;;5.94;nan
23321;BME280;33376;51.306;4.752;2024-01-27T04:14:40;103667.03;;;5.74;nan
23321;BME280;33376;51.306;4.752;2024-01-27T04:17:05;103654.88;;;5.83;nan
23321;BME280;33376;51.306;4.752;2024-01-27T04:19:31;103670.69;;;5.85;nan
23321;BME280;33376;51.306;4.752;2024-01-27T04:21:56;103645.25;;;5.85;nan
23321;BME280;33376;51.306;4.752;2024-01-27T04:24:21;103651.06;;;5.57;nan
23321;BME280;33376;51.306;4.752;2024-01-27T04:26:46;103701.34;;;5.11;nan
23321;BME280;33376;51.306;4.752;2024-01-27T04:29:12;103703.00;;;5.73;nan
23321;BME280;33376;51.306;4.752;2024-01-27T04:31:40;103660.75;;;5.58;nan
23321;BME280;33376;51.306;4.752;2024-01-27T04:34:06;103687.13;;;5.64;nan
23321;BME280;33376;51.306;4.752;2024-01-27T04:36:31;103675.59;;;5.53;nan
23321;BME280;33376;51.306;4.752;2024-01-27T04:38:57;103681.56;;;5.39;nan
23321;BME280;33376;51.306;4.752;2024-01-27T04:41:26;103656.22;;;5.48;nan
23321;BME280;33376;51.306;4.752;2024-01-27T04:43:52;103617.19;;;5.89;nan
23321;BME280;33376;51.306;4.752;2024-01-27T04:46:19;103637.84;;;5.51;nan
23321;BME280;33376;51.306;4.752;2024-01-27T04:48:45;103655.09;;;5.27;nan
23321;BME280;33376;51.306;4.752;2024-01-27T04:51:10;103676.16;;;5.30;nan
23321;BME280;33376;51.306;4.752;2024-01-27T04:53:36;103644.13;;;5.64;nan
23321;BME280;33376;51.306;4.752;2024-01-27T04:56:01;103655.34;;;5.48;nan
23321;BME280;33376;51.306;4.752;2024-01-27T04:58:27;103651.81;;;5.46;nan
23321;BME280;33376;51.306;4.752;2024-01-27T05:00:55;103653.75;;;5.63;nan
23321;BME280;33376;51.306;4.752;2024-01-27T05:03:23;103648.66;;;5.78;nan
23321;BME280;33376;51.306;4.752;2024-01-27T05:05:48;103615.50;;;5.98;nan
23321;BME280;33376;51.306;4.752;2024-01-27T05:08:16;103578.75;;;6.11;nan
23321;BME280;33376;51.306;4.752;2024-01-27T05:10:42;103606.47;;;5.72;nan
23321;BME280;33376;51.306;4.752;2024-01-27T05:13:07;103617.94;;;5.79;nan
23321;BME280;33376;51.306;4.752;2024-01-27T05:15:32;103638.53;;;5.34;nan
23321;BME280;33376;51.306;4.752;2024-01-27T05:17:57;103659.81;;;5.53;nan
23321;BME280;33376;51.306;4.752;2024-01-27T05:20:23;103631.19;;;5.83;nan
23321;BME280;33376;51.306;4.752;2024-01-27T05:22:48;103649.38;;;5.65;nan
23321;BME280;33376;51.306;4.752;2024-01-27T05:25:13;103630.75;;;5.47;nan
23321;BME280;33376;51.306;4.752;2024-01-27T05:27:38;103648.06;;;5.24;nan
23321;BME280;33376;51.306;4.752;2024-01-27T05:30:08;103646.22;;;5.20;nan
23321;BME280;33376;51.306;4.752;2024-01-27T05:32:33;103666.47;;;5.26;nan
23321;BME280;33376;51.306;4.752;2024-01-27T05:34:59;103634.44;;;5.61;nan
23321;BME280;33376;51.306;4.752;2024-01-27T05:37:24;103615.38;;;5.83;nan
23321;BME280;33376;51.306;4.752;2024-01-27T05:39:49;103617.09;;;5.81;nan
23321;BME280;33376;51.306;4.752;2024-01-27T05:42:14;103600.28;;;5.69;nan
23321;BME280;33376;51.306;4.752;2024-01-27T05:44:40;103593.31;;;5.71;nan
23321;BME280;33376;51.306;4.752;2024-01-27T05:47:05;103620.34;;;5.56;nan
23321;BME280;33376;51.306;4.752;2024-01-27T05:49:31;103605.50;;;5.63;nan
23321;BME280;33376;51.306;4.752;2024-01-27T05:51:56;103559.53;;;6.27;nan
23321;BME280;33376;51.306;4.752;2024-01-27T05:54:21;103568.03;;;5.91;nan
23321;BME280;33376;51.306;4.752;2024-01-27T05:56:47;103617.56;;;5.44;nan
23321;BME280;33376;51.306;4.752;2024-01-27T05:59:12;103585.78;;;6.15;nan
23321;BME280;33376;51.306;4.752;2024-01-27T06:01:38;103569.16;;;6.20;nan
23321;BME280;33376;51.306;4.752;2024-01-27T06:04:05;103583.06;;;6.03;nan
23321;BME280;33376;51.306;4.752;2024-01-27T06:06:31;103572.22;;;5.69;nan
23321;BME280;33376;51.306;4.752;2024-01-27T06:08:56;103599.63;;;5.86;nan
23321;BME280;33376;51.306;4.752;2024-01-27T06:11:24;103567.34;;;6.15;nan
23321;BME280;33376;51.306;4.752;2024-01-27T06:13:50;103569.84;;;5.95;nan
23321;BME280;33376;51.306;4.752;2024-01-27T06:16:17;103523.44;;;6.14;nan
23321;BME280;33376;51.306;4.752;2024-01-27T06:18:43;103587.22;;;5.79;nan
23321;BME280;33376;51.306;4.752;2024-01-27T06:21:08;103583.88;;;5.97;nan
23321;BME280;33376;51.306;4.752;2024-01-27T06:23:33;103606.06;;;5.33;nan
23321;BME280;33376;51.306;4.752;2024-01-27T06:25:59;103643.59;;;5.19;nan
23321;BME280;33376;51.306;4.752;2024-01-27T06:28:24;103665.00;;;4.80;nan
23321;BME280;33376;51.306;4.752;2024-01-27T06:30:49;103688.66;;;4.80;nan
23321;BME280;33376;51.306;4.752;2024-01-27T06:33:15;103687.84;;;4.84;nan
23321;BME280;33376;51.306;4.752;2024-01-27T06:35:40;103681.09;;;5.04;nan
23321;BME280;33376;51.306;4.752;2024-01-27T06:38:05;103685.22;;;4.86;nan
23321;BME280;33376;51.306;4.752;2024-01-27T06:40:30;103721.69;;;4.63;nan
23321;BME280;33376;51.306;4.752;2024-01-27T06:42:56;103682.94;;;5.10;nan
23321;BME280;33376;51.306;4.752;2024-01-27T06:45:21;103682.84;;;5.02;nan
23321;BME280;33376;51.306;4.752;2024-01-27T06:47:46;103679.25;;;4.96;nan
23321;BME280;33376;51.306;4.752;2024-01-27T06:50:11;103736.56;;;4.61;nan
23321;BME280;33376;51.306;4.752;2024-01-27T06:52:38;103756.72;;;4.62;nan
23321;BME280;33376;51.306;4.752;2024-01-27T06:55:04;103736.09;;;4.88;nan
23321;BME280;33376;51.306;4.752;2024-01-27T06:57:31;103732.25;;;4.68;nan
23321;BME280;33376;51.306;4.752;2024-01-27T06:59:57;103730.13;;;4.99;nan
23321;BME280;33376;51.306;4.752;2024-01-27T07:02:25;103728.31;;;4.95;nan
23321;BME280;33376;51.306;4.752;2024-01-27T07:04:56;103686.97;;;4.87;nan
23321;BME280;33376;51.306;4.752;2024-01-27T07:07:28;103680.94;;;4.92;nan
23321;BME280;33376;51.306;4.752;2024-01-27T07:09:57;103681.91;;;4.99;nan
23321;BME280;33376;51.306;4.752;2024-01-27T07:12:22;103664.88;;;5.38;nan
23321;BME280;33376;51.306;4.752;2024-01-27T07:14:47;103669.00;;;5.17;nan
23321;BME280;33376;51.306;4.752;2024-01-27T07:17:13;103671.72;;;5.23;nan
23321;BME280;33376;51.306;4.752;2024-01-27T07:19:38;103669.84;;;5.14;nan
23321;BME280;33376;51.306;4.752;2024-01-27T07:22:03;103683.28;;;5.38;nan
23321;BME280;33376;51.306;4.752;2024-01-27T07:24:29;103653.47;;;5.39;nan
23321;BME280;33376;51.306;4.752;2024-01-27T07:26:54;103653.72;;;5.60;nan
23321;BME280;33376;51.306;4.752;2024-01-27T07:29:19;103641.38;;;5.52;nan
23321;BME280;33376;51.306;4.752;2024-01-27T07:31:45;103641.28;;;5.46;nan
23321;BME280;33376;51.306;4.752;2024-01-27T07:34:10;103667.38;;;5.28;nan
23321;BME280;33376;51.306;4.752;2024-01-27T07:36:36;103700.81;;;5.36;nan
23321;BME280;33376;51.306;4.752;2024-01-27T07:39:01;103707.84;;;5.36;nan
23321;BME280;33376;51.306;4.752;2024-01-27T07:41:26;103691.50;;;4.97;nan
23321;BME280;33376;51.306;4.752;2024-01-27T07:43:53;103711.56;;;4.90;nan
23321;BME280;33376;51.306;4.752;2024-01-27T07:46:19;103733.53;;;4.94;nan
23321;BME280;33376;51.306;4.752;2024-01-27T07:48:47;103740.16;;;4.69;nan
23321;BME280;33376;51.306;4.752;2024-01-27T07:51:12;103752.91;;;4.99;nan
23321;BME280;33376;51.306;4.752;2024-01-27T07:53:37;103760.88;;;5.05;nan
23321;BME280;33376;51.306;4.752;2024-01-27T07:56:03;103760.53;;;4.82;nan
23321;BME280;33376;51.306;4.752;2024-01-27T07:58:28;103738.38;;;5.23;nan
23321;BME280;33376;51.306;4.752;2024-01-27T08:00:54;103740.22;;;5.33;nan
23321;BME280;33376;51.306;4.752;2024-01-27T08:03:19;103727.97;;;5.34;nan
23321;BME280;33376;51.306;4.752;2024-01-27T08:05:44;103744.34;;;5.13;nan
23321;BME280;33376;51.306;4.752;2024-01-27T08:08:09;103716.97;;;4.99;nan
23321;BME280;33376;51.306;4.752;2024-01-27T08:10:35;103743.19;;;5.59;nan
23321;BME280;33376;51.306;4.752;2024-01-27T08:13:01;103715.59;;;6.02;nan
23321;BME280;33376;51.306;4.752;2024-01-27T08:15:27;103713.50;;;5.72;nan
23321;BME280;33376;51.306;4.752;2024-01-27T08:17:52;103729.34;;;5.76;nan
23321;BME280;33376;51.306;4.752;2024-01-27T08:20:17;103729.84;;;6.19;nan
23321;BME280;33376;51.306;4.752;2024-01-27T08:22:42;103739.75;;;5.64;nan
23321;BME280;33376;51.306;4.752;2024-01-27T08:25:08;103736.31;;;5.70;nan
23321;BME280;33376;51.306;4.752;2024-01-27T08:27:33;103760.84;;;5.67;nan
23321;BME280;33376;51.306;4.752;2024-01-27T08:29:58;103749.59;;;5.80;nan
23321;BME280;33376;51.306;4.752;2024-01-27T08:32:24;103783.03;;;5.86;nan
23321;BME280;33376;51.306;4.752;2024-01-27T08:34:49;103744.19;;;6.51;nan
23321;BME280;33376;51.306;4.752;2024-01-27T08:37:15;103713.50;;;6.56;nan
23321;BME280;33376;51.306;4.752;2024-01-27T08:39:43;103763.88;;;5.97;nan
23321;BME280;33376;51.306;4.752;2024-01-27T08:42:09;103756.34;;;6.37;nan
23321;BME280;33376;51.306;4.752;2024-01-27T08:44:34;103793.69;;;5.93;nan
23321;BME280;33376;51.306;4.752;2024-01-27T08:47:00;103785.97;;;6.12;nan
23321;BME280;33376;51.306;4.752;2024-01-27T08:49:25;103799.47;;;5.70;nan
23321;BME280;33376;51.306;4.752;2024-01-27T08:51:50;103822.06;;;6.19;nan
23321;BME280;33376;51.306;4.752;2024-01-27T08:54:16;103746.94;;;6.69;nan
23321;BME280;33376;51.306;4.752;2024-01-27T08:56:42;103787.34;;;6.62;nan
23321;BME280;33376;51.306;4.752;2024-01-27T08:59:07;103729.59;;;6.99;nan
23321;BME280;33376;51.306;4.752;2024-01-27T09:01:33;103735.72;;;6.92;nan
23321;BME280;33376;51.306;4.752;2024-01-27T09:03:58;103761.19;;;6.87;nan
23321;BME280;33376;51.306;4.752;2024-01-27T09:06:23;103728.03;;;7.36;nan
23321;BME280;33376;51.306;4.752;2024-01-27T09:08:49;103759.41;;;6.88;nan
23321;BME280;33376;51.306;4.752;2024-01-27T09:11:14;103760.47;;;7.14;nan
23321;BME280;33376;51.306;4.752;2024-01-27T09:13:39;103774.19;;;6.65;nan
23321;BME280;33376;51.306;4.752;2024-01-27T09:16:05;103782.47;;;7.17;nan
23321;BME280;33376;51.306;4.752;2024-01-27T09:18:30;103739.47;;;7.32;nan
23321;BME280;33376;51.306;4.752;2024-01-27T09:20:56;103768.25;;;6.97;nan
23321;BME280;33376;51.306;4.752;2024-01-27T09:23:21;103774.81;;;7.63;nan
23321;BME280;33376;51.306;4.752;2024-01-27T09:25:47;103761.56;;;7.58;nan
23321;BME280;33376;51.306;4.752;2024-01-27T09:28:12;103806.16;;;7.08;nan
23321;BME280;33376;51.306;4.752;2024-01-27T09:30:37;103838.63;;;6.97;nan
23321;BME280;33376;51.306;4.752;2024-01-27T09:33:03;103805.59;;;7.56;nan
23321;BME280;33376;51.306;4.752;2024-01-27T09:35:28;103827.44;;;7.34;nan
23321;BME280;33376;51.306;4.752;2024-01-27T09:37:53;103805.72;;;7.94;nan
23321;BME280;33376;51.306;4.752;2024-01-27T09:40:19;103758.28;;;8.33;nan
23321;BME280;33376;51.306;4.752;2024-01-27T09:42:50;103772.38;;;8.39;nan
23321;BME280;33376;51.306;4.752;2024-01-27T09:45:17;103772.28;;;7.99;nan
23321;BME280;33376;51.306;4.752;2024-01-27T09:47:42;103804.81;;;7.83;nan
23321;BME280;33376;51.306;4.752;2024-01-27T09:50:08;103792.53;;;8.06;nan
23321;BME280;33376;51.306;4.752;2024-01-27T09:52:36;103760.91;;;8.79;nan
23321;BME280;33376;51.306;4.752;2024-01-27T09:55:01;103774.16;;;8.43;nan
23321;BME280;33376;51.306;4.752;2024-01-27T09:57:26;103760.03;;;8.68;nan
23321;BME280;33376;51.306;4.752;2024-01-27T09:59:52;103766.19;;;8.84;nan
23321;BME280;33376;51.306;4.752;2024-01-27T10:02:18;103753.88;;;8.63;nan
23321;BME280;33376;51.306;4.752;2024-01-27T10:04:44;103758.31;;;8.61;nan
23321;BME280;33376;51.306;4.752;2024-01-27T10:07:10;103746.81;;;8.74;nan
23321;BME280;33376;51.306;4.752;2024-01-27T10:09:35;103797.94;;;8.34;nan
23321;BME280;33376;51.306;4.752;2024-01-27T10:12:01;103855.81;;;7.74;nan
23321;BME280;33376;51.306;4.752;2024-01-27T10:17:05;103844.56;;;8.17;nan
23321;BME280;33376;51.306;4.752;2024-01-27T10:19:30;103846.41;;;8.35;nan
23321;BME280;33376;51.306;4.752;2024-01-27T10:22:01;103820.03;;;8.71;nan
23321;BME280;33376;51.306;4.752;2024-01-27T10:24:27;103840.25;;;8.49;nan
23321;BME280;33376;51.306;4.752;2024-01-27T10:26:58;103832.31;;;8.34;nan
23321;BME280;33376;51.306;4.752;2024-01-27T10:29:23;103846.44;;;8.53;nan
23321;BME280;33376;51.306;4.752;2024-01-27T10:31:49;103822.66;;;8.63;nan
23321;BME280;33376;51.306;4.752;2024-01-27T10:34:14;103833.25;;;8.89;nan
23321;BME280;33376;51.306;4.752;2024-01-27T10:36:44;103805.88;;;9.20;nan
23321;BME280;33376;51.306;4.752;2024-01-27T10:39:16;103792.56;;;9.49;nan
23321;BME280;33376;51.306;4.752;2024-01-27T10:41:41;103782.91;;;9.31;nan
23321;BME280;33376;51.306;4.752;2024-01-27T10:44:10;103742.00;;;9.89;nan
23321;BME280;33376;51.306;4.752;2024-01-27T10:46:38;103729.75;;;9.76;nan
23321;BME280;33376;51.306;4.752;2024-01-27T10:49:03;103770.56;;;9.17;nan
23321;BME280;33376;51.306;4.752;2024-01-27T10:51:31;103734.75;;;10.29;nan
23321;BME280;33376;51.306;4.752;2024-01-27T10:54:02;103705.50;;;10.37;nan
23321;BME280;33376;51.306;4.752;2024-01-27T10:56:29;103744.59;;;10.04;nan
23321;BME280;33376;51.306;4.752;2024-01-27T10:58:54;103703.66;;;10.46;nan
23321;BME280;33376;51.306;4.752;2024-01-27T11:01:21;103708.22;;;10.30;nan
23321;BME280;33376;51.306;4.752;2024-01-27T11:03:48;103735.75;;;10.01;nan
23321;BME280;33376;51.306;4.752;2024-01-27T11:06:13;103704.59;;;10.36;nan
23321;BME280;33376;51.306;4.752;2024-01-27T11:08:39;103716.38;;;9.91;nan
23321;BME280;33376;51.306;4.752;2024-01-27T11:11:05;103732.16;;;10.15;nan
23321;BME280;33376;51.306;4.752;2024-01-27T11:13:31;103713.69;;;10.03;nan
23321;BME280;33376;51.306;4.752;2024-01-27T11:15:57;103629.66;;;10.99;nan
23321;BME280;33376;51.306;4.752;2024-01-27T11:18:25;103633.91;;;11.12;nan
23321;BME280;33376;51.306;4.752;2024-01-27T11:20:54;103652.69;;;10.97;nan
23321;BME280;33376;51.306;4.752;2024-01-27T11:23:19;103625.03;;;11.16;nan
23321;BME280;33376;51.306;4.752;2024-01-27T11:25:45;103603.38;;;11.45;nan
23321;BME280;33376;51.306;4.752;2024-01-27T11:28:11;103643.09;;;10.86;nan
23321;BME280;33376;51.306;4.752;2024-01-27T11:30:39;103628.25;;;10.67;nan
23321;BME280;33376;51.306;4.752;2024-01-27T11:33:05;103642.31;;;10.76;nan
23321;BME280;33376;51.306;4.752;2024-01-27T11:35:30;103691.13;;;10.60;nan
23321;BME280;33376;51.306;4.752;2024-01-27T11:37:55;103645.31;;;11.20;nan
23321;BME280;33376;51.306;4.752;2024-01-27T11:40:21;103672.22;;;10.92;nan
23321;BME280;33376;51.306;4.752;2024-01-27T11:42:59;103674.31;;;10.61;nan
23321;BME280;33376;51.306;4.752;2024-01-27T11:45:25;103676.97;;;10.60;nan
23321;BME280;33376;51.306;4.752;2024-01-27T11:47:50;103669.16;;;10.46;nan
23321;BME280;33376;51.306;4.752;2024-01-27T11:50:19;103663.53;;;10.78;nan
23321;BME280;33376;51.306;4.752;2024-01-27T11:52:45;103645.09;;;10.64;nan
23321;BME280;33376;51.306;4.752;2024-01-27T11:55:11;103656.84;;;10.39;nan
23321;BME280;33376;51.306;4.752;2024-01-27T11:57:36;103648.56;;;10.72;nan
23321;BME280;33376;51.306;4.752;2024-01-27T12:00:01;103629.97;;;10.74;nan
23321;BME280;33376;51.306;4.752;2024-01-27T12:02:27;103617.81;;;11.26;nan
23321;BME280;33376;51.306;4.752;2024-01-27T12:04:52;103587.78;;;11.19;nan
23321;BME280;33376;51.306;4.752;2024-01-27T12:07:18;103586.50;;;11.46;nan
23321;BME280;33376;51.306;4.752;2024-01-27T12:09:50;103545.69;;;11.51;nan
23321;BME280;33376;51.306;4.752;2024-01-27T12:12:16;103555.66;;;11.39;nan
23321;BME280;33376;51.306;4.752;2024-01-27T12:14:50;103505.44;;;11.77;nan
23321;BME280;33376;51.306;4.752;2024-01-27T12:17:16;103492.03;;;11.83;nan
23321;BME280;33376;51.306;4.752;2024-01-27T12:19:45;103501.13;;;11.70;nan
23321;BME280;33376;51.306;4.752;2024-01-27T12:24:45;103492.41;;;11.59;nan
23321;BME280;33376;51.306;4.752;2024-01-27T12:27:10;103492.47;;;11.56;nan
23321;BME280;33376;51.306;4.752;2024-01-27T12:29:35;103488.16;;;11.49;nan
23321;BME280;33376;51.306;4.752;2024-01-27T12:32:01;103453.53;;;11.55;nan
23321;BME280;33376;51.306;4.752;2024-01-27T12:34:26;103432.19;;;12.07;nan
23321;BME280;33376;51.306;4.752;2024-01-27T12:36:52;103441.16;;;11.52;nan
23321;BME280;33376;51.306;4.752;2024-01-27T12:39:17;103442.44;;;11.82;nan
23321;BME280;33376;51.306;4.752;2024-01-27T12:41:42;103459.38;;;11.75;nan
23321;BME280;33376;51.306;4.752;2024-01-27T12:44:08;103435.16;;;11.92;nan
23321;BME280;33376;51.306;4.752;2024-01-27T12:46:33;103393.41;;;12.39;nan
23321;BME280;33376;51.306;4.752;2024-01-27T12:48:58;103385.44;;;12.38;nan
23321;BME280;33376;51.306;4.752;2024-01-27T12:51:24;103401.91;;;11.71;nan
23321;BME280;33376;51.306;4.752;2024-01-27T12:53:49;103397.53;;;11.67;nan
23321;BME280;33376;51.306;4.752;2024-01-27T12:56:15;103337.06;;;12.59;nan
23321;BME280;33376;51.306;4.752;2024-01-27T12:58:40;103318.78;;;12.44;nan
23321;BME280;33376;51.306;4.752;2024-01-27T13:01:06;103332.94;;;12.05;nan
23321;BME280;33376;51.306;4.752;2024-01-27T13:03:32;103343.50;;;12.09;nan
23321;BME280;33376;51.306;4.752;2024-01-27T13:05:57;103342.59;;;12.10;nan
23321;BME280;33376;51.306;4.752;2024-01-27T13:08:22;103350.13;;;12.31;nan
23321;BME280;33376;51.306;4.752;2024-01-27T13:10:48;103304.88;;;12.31;nan
23321;BME280;33376;51.306;4.752;2024-01-27T13:13:13;103330.84;;;12.20;nan
23321;BME280;33376;51.306;4.752;2024-01-27T13:15:39;103322.88;;;12.20;nan